ICAO code: LHPR | IATA code: QGY | AFTN: LHPRZPZX | english | deutsch
Időjárás: 2017-08-17 19:00 (UTC) | Hőmérséklet: 23.8 °C | QNH: 1018.8 hPa | Szél: --.- m/s | Részletek
Live ATC LHPR
Webkameránk élőképe

Győr-Pér Repülőtér időjárás adatok

Metar:
METAR LHPR 171845Z AUTO VRB01KT CAVOK 25/14 Q1018 RMK BL


Taf:
TAF LHPR 171715Z 1718/1803 VRB03KT CAVOK


Jelenidő:
Nem volt érdemleges időjárási jelenség az elmúlt órában
Időbélyeg: 2017-08-17 19:00:00 UTC
Hőmérséklet:
23.8 °C
 
Harmatpont:
14.8 °C
 
Rel. páratartalom:
57%
 
QNH:
1018.8 hPa
 
Szélsebesség:
0.0 m/s
Max:
0.0 m/s
Szélirány:
240°
 
Csapadék (1 óra):
0.0 mm
 
Látótávolság:
20000 m
 
RVR:
>1500 m RWY30
 
1. felhőréteg mennyisége:
0 octa
 
1. felhőréteg alapja:
m


Az adatokat szolgáltatja
az Országos Meteorológiai Szolgálat
Győr-Pér Repülőtér | H 9099 Pér, Repülőtér | Tel: +36/96/559-200 | Fax: +36/96/559-202

ICAO code: LHPR | IATA code: QGY | AFTN: LHPRZPZX


weboldal tervezés: IRQ